createdAt,value
2022-12-12T00:01:18.589Z,10.08
2022-12-12T00:04:22.469Z,10.01
2022-12-12T00:07:26.290Z,9.98
2022-12-12T00:10:30.268Z,10.03
2022-12-12T00:13:35.000Z,9.89
2022-12-12T00:16:40.369Z,10.03
2022-12-12T00:19:44.409Z,10.03
2022-12-12T00:22:48.309Z,10.02
2022-12-12T00:25:57.110Z,10.18
2022-12-12T00:29:02.052Z,10.09
2022-12-12T00:32:07.535Z,10.02
2022-12-12T00:35:11.798Z,9.92
2022-12-12T00:38:15.938Z,10.20
2022-12-12T00:41:20.276Z,9.85
2022-12-12T00:44:24.030Z,9.96
2022-12-12T00:47:29.229Z,9.70
2022-12-12T00:50:33.850Z,9.96
2022-12-12T00:53:38.036Z,9.94
2022-12-12T00:56:42.236Z,10.01
2022-12-12T00:59:46.021Z,9.89
2022-12-12T01:02:51.395Z,9.92
2022-12-12T01:05:55.049Z,9.92
2022-12-12T01:08:58.956Z,9.57
2022-12-12T01:12:02.716Z,9.73
2022-12-12T01:15:09.035Z,9.72
2022-12-12T01:18:14.449Z,9.55
2022-12-12T01:21:20.005Z,9.21
2022-12-12T01:24:23.607Z,9.18
2022-12-12T01:27:27.499Z,9.25
2022-12-12T01:30:31.337Z,8.95
2022-12-12T01:33:36.870Z,8.82
2022-12-12T01:36:40.539Z,9.18
2022-12-12T01:39:44.138Z,9.07
2022-12-12T01:42:48.055Z,9.17
2022-12-12T01:46:42.477Z,8.99
2022-12-12T01:49:51.396Z,8.93
2022-12-12T01:52:55.181Z,9.00
2022-12-12T01:56:00.456Z,9.00
2022-12-12T01:59:06.995Z,9.05
2022-12-12T02:02:11.965Z,9.39
2022-12-12T02:05:25.176Z,9.41
2022-12-12T02:08:29.654Z,9.41
2022-12-12T02:11:34.671Z,9.35
2022-12-12T02:14:42.218Z,9.26
2022-12-12T02:18:02.235Z,9.49
2022-12-12T02:21:18.670Z,9.51
2022-12-12T02:24:56.369Z,9.22
2022-12-12T02:28:29.673Z,9.37
2022-12-12T02:31:42.026Z,9.52
2022-12-12T02:34:51.832Z,9.57
2022-12-12T02:38:05.371Z,9.59
2022-12-12T02:41:19.522Z,9.87
2022-12-12T02:44:30.299Z,9.86
2022-12-12T02:47:40.308Z,10.04
2022-12-12T02:50:45.890Z,10.03
2022-12-12T02:53:49.496Z,9.98
2022-12-12T02:56:56.377Z,9.83
2022-12-12T03:00:03.532Z,9.68
2022-12-12T03:03:47.330Z,10.01
2022-12-12T03:07:21.516Z,9.80
2022-12-12T03:10:43.081Z,10.16
2022-12-12T03:13:54.335Z,10.27
2022-12-12T03:17:05.770Z,10.31
2022-12-12T03:20:17.094Z,10.07
2022-12-12T03:23:25.944Z,10.26
2022-12-12T03:26:32.770Z,10.20
2022-12-12T03:29:43.118Z,10.14
2022-12-12T03:32:53.579Z,9.79
2022-12-12T03:36:04.704Z,9.83
2022-12-12T03:39:14.235Z,9.83
2022-12-12T03:42:24.189Z,9.83
2022-12-12T03:45:34.087Z,10.08
2022-12-12T03:48:42.228Z,9.95
2022-12-12T03:51:53.425Z,9.78
2022-12-12T03:55:03.771Z,9.73
2022-12-12T03:58:12.970Z,9.62
2022-12-12T04:01:19.103Z,9.77
2022-12-12T04:04:29.996Z,9.94
2022-12-12T04:07:41.730Z,10.03
2022-12-12T04:11:06.752Z,10.12
2022-12-12T04:14:22.856Z,10.19
2022-12-12T04:17:33.643Z,10.31
2022-12-12T04:21:01.739Z,10.34
2022-12-12T04:24:18.360Z,10.30
2022-12-12T04:27:27.234Z,10.37
2022-12-12T04:30:33.252Z,10.37
2022-12-12T04:33:43.934Z,10.58
2022-12-12T04:36:49.178Z,10.60
2022-12-12T04:39:57.500Z,10.63
2022-12-12T04:43:07.236Z,10.36
2022-12-12T04:46:15.345Z,10.20
2022-12-12T04:49:23.075Z,10.00
2022-12-12T04:52:28.057Z,9.72
2022-12-12T04:55:37.437Z,9.36
2022-12-12T04:58:42.063Z,9.89
2022-12-12T05:01:53.432Z,9.95
2022-12-12T05:05:01.409Z,9.96
2022-12-12T05:08:09.797Z,9.94
2022-12-12T05:11:16.356Z,9.94
2022-12-12T05:14:21.060Z,9.96
2022-12-12T05:17:29.260Z,9.95
2022-12-12T05:20:33.255Z,10.05
2022-12-12T05:23:37.056Z,9.73
2022-12-12T05:26:42.765Z,9.97
2022-12-12T05:29:46.529Z,9.98
2022-12-12T05:32:50.838Z,9.93
2022-12-12T05:35:54.640Z,10.09
2022-12-12T05:38:58.421Z,10.08
2022-12-12T05:42:03.837Z,10.07
2022-12-12T05:45:09.338Z,9.83
2022-12-12T05:48:13.195Z,9.84
2022-12-12T05:51:17.076Z,9.79
2022-12-12T05:54:21.029Z,9.83
2022-12-12T05:57:26.378Z,9.54
2022-12-12T06:00:30.409Z,9.60
2022-12-12T06:03:34.674Z,9.80
2022-12-12T06:06:38.756Z,9.65
2022-12-12T06:09:42.635Z,9.69
2022-12-12T06:12:47.935Z,9.93
2022-12-12T06:15:51.780Z,9.78
2022-12-12T06:18:57.216Z,9.28
2022-12-12T06:22:01.113Z,9.26
2022-12-12T06:25:05.455Z,9.71
2022-12-12T06:28:10.816Z,9.58
2022-12-12T06:31:15.882Z,9.54
2022-12-12T06:34:19.857Z,9.39
2022-12-12T06:37:23.869Z,9.35
2022-12-12T06:40:27.735Z,8.97
2022-12-12T06:43:33.055Z,8.75
2022-12-12T06:46:37.048Z,8.78
2022-12-12T06:49:40.936Z,9.22
2022-12-12T06:52:44.770Z,9.26
2022-12-12T06:55:48.468Z,9.35
2022-12-12T06:58:54.555Z,9.81
2022-12-12T07:01:58.835Z,9.69
2022-12-12T07:05:03.257Z,9.71
2022-12-12T07:08:07.132Z,9.57
2022-12-12T07:11:15.038Z,10.08
2022-12-12T07:14:20.369Z,10.33
2022-12-12T07:17:24.189Z,10.69
2022-12-12T07:20:27.990Z,10.99
2022-12-12T07:23:31.903Z,11.10
2022-12-12T07:26:35.755Z,11.09
2022-12-12T07:29:41.157Z,10.89
2022-12-12T07:32:45.197Z,10.78
2022-12-12T07:35:49.177Z,10.88
2022-12-12T07:38:53.009Z,11.02
2022-12-12T07:41:56.815Z,10.92
2022-12-12T07:45:02.629Z,10.93
2022-12-12T07:48:06.724Z,10.93
2022-12-12T07:51:10.870Z,10.95
2022-12-12T07:54:14.776Z,10.95
2022-12-12T07:57:18.625Z,10.99
2022-12-12T08:00:24.489Z,10.78
2022-12-12T08:03:28.649Z,10.85
2022-12-12T08:06:32.592Z,11.24
2022-12-12T08:09:38.009Z,11.18
2022-12-12T08:12:42.036Z,11.42
2022-12-12T08:15:47.530Z,11.63
2022-12-12T08:18:51.850Z,11.67
2022-12-12T08:21:55.869Z,11.76
2022-12-12T08:24:59.668Z,11.81
2022-12-12T08:28:03.628Z,11.80
2022-12-12T08:31:09.091Z,11.67
2022-12-12T08:34:13.375Z,11.61
2022-12-12T08:37:17.256Z,11.58
2022-12-12T08:40:21.564Z,11.89
2022-12-12T08:43:25.558Z,12.03
2022-12-12T08:46:31.771Z,11.94
2022-12-12T08:49:35.730Z,11.93
2022-12-12T08:52:39.610Z,12.03
2022-12-12T08:55:43.537Z,11.89
2022-12-12T08:58:48.033Z,12.13
2022-12-12T09:01:53.399Z,12.14
2022-12-12T09:04:57.416Z,11.99
2022-12-12T09:08:01.268Z,12.10
2022-12-12T09:11:05.575Z,12.11
2022-12-12T09:14:09.390Z,12.52
2022-12-12T09:17:14.669Z,12.62
2022-12-12T09:20:18.679Z,12.37
2022-12-12T09:23:23.910Z,12.61
2022-12-12T09:26:27.869Z,12.76
2022-12-12T09:29:32.090Z,13.26
2022-12-12T09:32:37.610Z,13.36
2022-12-12T09:35:41.469Z,13.42
2022-12-12T09:38:45.869Z,13.85
2022-12-12T09:41:49.677Z,13.98
2022-12-12T09:44:57.911Z,13.99
2022-12-12T09:48:07.018Z,13.81
2022-12-12T09:51:12.159Z,13.99
2022-12-12T09:54:18.132Z,14.13
2022-12-12T09:57:29.590Z,14.58
2022-12-12T10:00:38.494Z,14.76
2022-12-12T10:03:57.776Z,15.06
2022-12-12T10:07:08.196Z,14.78
2022-12-12T10:10:23.360Z,15.57
2022-12-12T10:13:31.097Z,15.96
2022-12-12T10:16:35.231Z,16.17
2022-12-12T10:19:49.990Z,16.07
2022-12-12T10:23:00.956Z,16.30
2022-12-12T10:26:08.811Z,16.67
2022-12-12T10:29:15.997Z,16.87
2022-12-12T10:32:33.689Z,16.85
2022-12-12T10:35:47.076Z,16.77
2022-12-12T10:39:09.131Z,16.85
2022-12-12T10:42:21.736Z,17.03
2022-12-12T10:45:42.156Z,16.96
2022-12-12T10:48:47.256Z,17.10
2022-12-12T10:51:54.138Z,17.25
2022-12-12T10:55:01.585Z,17.54
2022-12-12T10:58:06.709Z,17.53
2022-12-12T11:01:33.038Z,17.52
2022-12-12T11:04:46.731Z,17.34
2022-12-12T11:08:03.091Z,17.57
2022-12-12T11:11:10.011Z,17.56
2022-12-12T11:14:28.677Z,17.56
2022-12-12T11:17:35.016Z,16.79
2022-12-12T11:20:46.810Z,17.22
2022-12-12T11:23:55.456Z,17.42
2022-12-12T11:27:02.138Z,17.36
2022-12-12T11:30:09.335Z,17.23
2022-12-12T11:33:20.859Z,16.62
2022-12-12T11:36:29.789Z,16.37
2022-12-12T11:39:42.998Z,16.12
2022-12-12T11:42:46.738Z,15.80
2022-12-12T11:46:04.088Z,15.54
2022-12-12T11:49:20.258Z,14.95
2022-12-12T11:52:27.776Z,15.03
2022-12-12T11:55:39.975Z,15.03
2022-12-12T11:58:51.950Z,14.96
2022-12-12T12:02:07.057Z,14.65
2022-12-12T12:05:22.316Z,14.54
2022-12-12T12:08:45.376Z,14.45
2022-12-12T12:12:02.816Z,14.52
2022-12-12T12:15:29.975Z,14.50
2022-12-12T12:18:52.695Z,14.62
2022-12-12T12:22:09.189Z,14.64
2022-12-12T12:25:34.190Z,14.59
2022-12-12T12:29:04.329Z,14.32
2022-12-12T12:32:19.831Z,14.50
2022-12-12T12:35:31.477Z,14.32
2022-12-12T12:39:05.139Z,14.04
2022-12-12T12:42:22.297Z,14.06
2022-12-12T12:45:38.570Z,13.91
2022-12-12T12:48:46.051Z,14.02
2022-12-12T12:51:56.364Z,13.96
2022-12-12T12:55:02.872Z,14.00
2022-12-12T12:58:08.357Z,14.09
2022-12-12T13:01:18.380Z,13.88
2022-12-12T13:04:26.829Z,13.93
2022-12-12T13:07:40.708Z,13.96
2022-12-12T13:10:49.775Z,13.75
2022-12-12T13:13:56.718Z,13.61
2022-12-12T13:17:07.251Z,13.58
2022-12-12T13:20:17.317Z,13.84
2022-12-12T13:23:37.814Z,13.96
2022-12-12T13:26:49.977Z,14.02
2022-12-12T13:30:00.869Z,13.77
2022-12-12T13:33:17.369Z,13.76
2022-12-12T13:36:29.341Z,13.77
2022-12-12T13:39:36.849Z,13.63
2022-12-12T13:42:55.936Z,13.57
2022-12-12T13:46:01.277Z,13.59
2022-12-12T13:49:28.830Z,13.47
2022-12-12T13:52:35.288Z,13.40
2022-12-12T13:55:39.889Z,13.48
2022-12-12T13:58:43.772Z,13.42
2022-12-12T14:01:48.741Z,13.34
2022-12-12T14:05:10.956Z,13.22
2022-12-12T14:08:29.298Z,12.95
2022-12-12T14:11:37.712Z,13.01
2022-12-12T14:14:42.977Z,12.91
2022-12-12T14:17:55.352Z,12.86
2022-12-12T14:21:03.784Z,12.89
2022-12-12T14:24:47.802Z,12.75
2022-12-12T14:28:17.256Z,12.73
2022-12-12T14:31:21.540Z,12.68
2022-12-12T14:34:31.947Z,12.69
2022-12-12T14:37:51.597Z,12.54
2022-12-12T14:41:00.855Z,12.59
2022-12-12T14:44:36.077Z,12.78
2022-12-12T14:47:33.998Z,12.81
2022-12-12T14:50:38.969Z,12.70
2022-12-12T14:53:55.630Z,12.73
2022-12-12T14:57:01.609Z,12.70
2022-12-12T15:00:06.636Z,12.74
2022-12-12T15:03:10.816Z,12.78
2022-12-12T15:06:29.861Z,12.85
2022-12-12T15:09:36.870Z,13.01
2022-12-12T15:12:46.029Z,13.00
2022-12-12T15:15:52.340Z,12.99
2022-12-12T15:18:57.833Z,12.85
2022-12-12T15:22:01.976Z,12.66
2022-12-12T15:25:19.170Z,12.71
2022-12-12T15:28:26.697Z,12.66
2022-12-12T15:31:31.023Z,12.62
2022-12-12T15:34:40.457Z,12.49
2022-12-12T15:37:44.736Z,12.60
2022-12-12T15:40:53.217Z,12.46
2022-12-12T15:43:57.417Z,12.30
2022-12-12T15:47:01.663Z,12.18
2022-12-12T15:50:14.705Z,11.98
2022-12-12T15:53:23.109Z,12.09
2022-12-12T15:56:30.416Z,12.28
2022-12-12T15:59:35.369Z,12.22
2022-12-12T16:02:41.031Z,12.23
2022-12-12T16:05:45.477Z,12.29
2022-12-12T16:08:54.412Z,12.33
2022-12-12T16:12:00.379Z,12.27
2022-12-12T16:15:20.170Z,12.23
2022-12-12T16:18:25.775Z,12.09
2022-12-12T16:21:30.336Z,11.99
2022-12-12T16:24:34.704Z,12.02
2022-12-12T16:27:40.269Z,12.21
2022-12-12T16:30:46.750Z,12.31
2022-12-12T16:33:50.651Z,12.19
2022-12-12T16:36:54.510Z,12.12
2022-12-12T16:39:58.894Z,11.97
2022-12-12T16:43:10.964Z,11.93
2022-12-12T16:46:20.584Z,11.97
2022-12-12T16:49:24.583Z,12.34
2022-12-12T16:52:28.595Z,12.27
2022-12-12T16:55:32.920Z,12.39
2022-12-12T16:58:38.680Z,12.33
2022-12-12T17:01:42.600Z,12.10
2022-12-12T17:04:46.777Z,12.25
2022-12-12T17:07:51.246Z,12.25
2022-12-12T17:11:10.606Z,12.26
2022-12-12T17:14:22.430Z,12.41
2022-12-12T17:17:26.316Z,12.31
2022-12-12T17:20:37.522Z,12.30
2022-12-12T17:23:42.336Z,12.33
2022-12-12T17:26:46.169Z,12.17
2022-12-12T17:29:51.624Z,12.14
2022-12-12T17:36:17.450Z,12.24
2022-12-12T17:39:21.438Z,12.27
2022-12-12T17:42:25.311Z,12.36
2022-12-12T17:45:30.848Z,12.44
2022-12-12T17:48:37.376Z,12.45
2022-12-12T17:51:41.190Z,12.54
2022-12-12T17:55:53.154Z,12.62
2022-12-12T17:58:08.916Z,12.66
2022-12-12T18:01:17.108Z,12.63
2022-12-12T18:04:27.389Z,12.62
2022-12-12T18:07:32.148Z,12.70
2022-12-12T18:10:38.683Z,12.68
2022-12-12T18:13:43.741Z,12.68
2022-12-12T18:16:53.401Z,12.64
2022-12-12T18:19:57.375Z,12.66
2022-12-12T18:23:01.222Z,12.69
2022-12-12T18:26:06.311Z,12.74
2022-12-12T18:29:13.010Z,12.77
2022-12-12T18:32:18.377Z,12.47
2022-12-12T18:35:22.189Z,12.00
2022-12-12T18:38:26.196Z,11.77
2022-12-12T18:41:31.895Z,12.09
2022-12-12T18:44:35.923Z,12.33
2022-12-12T18:47:41.217Z,12.33
2022-12-12T18:50:45.196Z,12.07
2022-12-12T18:53:49.108Z,11.17
2022-12-12T18:56:53.081Z,11.32
2022-12-12T18:59:57.916Z,11.59
2022-12-12T19:03:03.132Z,11.69
2022-12-12T19:06:07.837Z,11.79
2022-12-12T19:09:14.808Z,11.99
2022-12-12T19:12:18.976Z,11.96
2022-12-12T19:15:22.915Z,11.99
2022-12-12T19:18:28.180Z,12.11
2022-12-12T19:21:33.970Z,11.72
2022-12-12T19:24:41.209Z,11.83
2022-12-12T19:27:45.500Z,11.88
2022-12-12T19:30:49.414Z,12.13
2022-12-12T19:33:55.290Z,11.99
2022-12-12T19:36:59.489Z,12.13
2022-12-12T19:40:03.557Z,12.29
2022-12-12T19:43:07.497Z,12.19
2022-12-12T19:46:13.551Z,12.26
2022-12-12T19:49:19.055Z,12.25
2022-12-12T19:52:22.996Z,12.19
2022-12-12T19:55:27.009Z,12.06
2022-12-12T19:58:35.143Z,12.07
2022-12-12T20:01:43.264Z,11.92
2022-12-12T20:04:48.829Z,11.81
2022-12-12T20:07:52.738Z,11.91
2022-12-12T20:10:56.535Z,11.88
2022-12-12T20:14:01.884Z,11.96
2022-12-12T20:17:06.316Z,12.02
2022-12-12T20:20:12.738Z,11.91
2022-12-12T20:23:16.770Z,12.01
2022-12-12T20:26:22.629Z,11.54
2022-12-12T20:29:26.635Z,11.26
2022-12-12T20:32:30.835Z,11.20
2022-12-12T20:35:37.277Z,10.98
2022-12-12T20:38:41.590Z,10.92
2022-12-12T20:41:46.409Z,10.90
2022-12-12T20:44:51.056Z,11.02
2022-12-12T20:47:55.032Z,10.78
2022-12-12T20:51:01.169Z,10.80
2022-12-12T20:54:07.053Z,10.70
2022-12-12T20:57:11.029Z,10.75
2022-12-12T21:00:15.463Z,10.46
2022-12-12T21:03:19.631Z,10.48
2022-12-12T21:06:27.008Z,10.54
2022-12-12T21:09:30.830Z,10.50
2022-12-12T21:12:34.936Z,10.19
2022-12-12T21:15:39.257Z,9.96
2022-12-12T21:18:43.377Z,10.00
2022-12-12T21:21:48.668Z,9.87
2022-12-12T21:24:52.637Z,9.76
2022-12-12T21:27:57.409Z,9.64
2022-12-12T21:31:01.858Z,9.47
2022-12-12T21:34:06.978Z,9.19
2022-12-12T21:37:13.978Z,9.24
2022-12-12T21:40:17.870Z,8.64
2022-12-12T21:43:22.089Z,8.69
2022-12-12T21:46:27.645Z,8.66
2022-12-12T21:49:32.289Z,8.41
2022-12-12T21:52:37.644Z,8.27
2022-12-12T21:55:42.289Z,8.00
2022-12-12T21:58:47.794Z,8.32
2022-12-12T22:01:52.033Z,8.61
2022-12-12T22:04:55.929Z,8.52
2022-12-12T22:08:01.408Z,8.28
2022-12-12T22:11:05.564Z,7.89
2022-12-12T22:14:10.829Z,7.99
2022-12-12T22:17:14.489Z,8.08
2022-12-12T22:20:18.477Z,8.09
2022-12-12T22:23:24.145Z,8.14
2022-12-12T22:26:30.296Z,8.22
2022-12-12T22:29:34.097Z,8.13
2022-12-12T22:32:37.911Z,8.23
2022-12-12T22:35:41.870Z,8.58
2022-12-12T22:38:47.144Z,8.51
2022-12-12T22:41:51.679Z,8.71
2022-12-12T22:44:55.569Z,8.47
2022-12-12T22:47:59.377Z,8.73
2022-12-12T22:51:13.650Z,8.67
2022-12-12T22:54:19.658Z,8.57
2022-12-12T22:57:23.693Z,8.58
2022-12-12T23:00:27.696Z,8.30
2022-12-12T23:03:32.737Z,8.56
2022-12-12T23:06:37.490Z,8.80
2022-12-12T23:09:52.709Z,8.90
2022-12-12T23:12:56.629Z,8.99
2022-12-12T23:16:00.621Z,8.85
2022-12-12T23:19:06.597Z,8.70
2022-12-12T23:22:10.790Z,8.74
2022-12-12T23:25:16.467Z,8.68
2022-12-12T23:28:20.512Z,8.61
2022-12-12T23:31:27.313Z,8.63
2022-12-12T23:34:32.269Z,8.63
2022-12-12T23:37:36.117Z,8.45
2022-12-12T23:40:41.525Z,8.61
2022-12-12T23:43:46.456Z,8.44
2022-12-12T23:46:51.516Z,8.32
2022-12-12T23:49:55.357Z,8.32
2022-12-12T23:52:59.776Z,8.60
2022-12-12T23:56:06.679Z,8.38
2022-12-12T23:59:16.881Z,8.51
